sensor_id;sensor_type;location;lat;lon;timestamp;P1;durP1;ratioP1;P2;durP2;ratioP2
84687;SDS011;74908;42.040;21.322;2024-03-08T00:00:33;9.38;;;4.53;;
84687;SDS011;74908;42.040;21.322;2024-03-08T00:03:00;9.75;;;4.10;;
84687;SDS011;74908;42.040;21.322;2024-03-08T00:05:27;11.43;;;4.65;;
84687;SDS011;74908;42.040;21.322;2024-03-08T00:07:53;10.57;;;4.40;;
84687;SDS011;74908;42.040;21.322;2024-03-08T00:10:20;9.60;;;4.97;;
84687;SDS011;74908;42.040;21.322;2024-03-08T00:12:47;7.65;;;4.53;;
84687;SDS011;74908;42.040;21.322;2024-03-08T00:15:15;11.23;;;3.53;;
84687;SDS011;74908;42.040;21.322;2024-03-08T00:17:42;9.13;;;4.30;;
84687;SDS011;74908;42.040;21.322;2024-03-08T00:20:09;9.05;;;4.25;;
84687;SDS011;74908;42.040;21.322;2024-03-08T00:22:37;8.23;;;4.07;;
84687;SDS011;74908;42.040;21.322;2024-03-08T00:25:03;8.23;;;4.07;;
84687;SDS011;74908;42.040;21.322;2024-03-08T00:27:30;9.63;;;4.90;;
84687;SDS011;74908;42.040;21.322;2024-03-08T00:29:59;8.52;;;4.43;;
84687;SDS011;74908;42.040;21.322;2024-03-08T00:32:25;8.85;;;4.13;;
84687;SDS011;74908;42.040;21.322;2024-03-08T00:34:56;11.25;;;4.97;;
84687;SDS011;74908;42.040;21.322;2024-03-08T00:37:22;8.52;;;4.32;;
84687;SDS011;74908;42.040;21.322;2024-03-08T00:39:50;11.13;;;5.03;;
84687;SDS011;74908;42.040;21.322;2024-03-08T00:42:16;14.95;;;5.53;;
84687;SDS011;74908;42.040;21.322;2024-03-08T00:44:43;12.07;;;5.07;;
84687;SDS011;74908;42.040;21.322;2024-03-08T00:47:09;11.82;;;4.45;;
84687;SDS011;74908;42.040;21.322;2024-03-08T00:49:37;10.48;;;4.75;;
84687;SDS011;74908;42.040;21.322;2024-03-08T00:52:04;10.43;;;4.72;;
84687;SDS011;74908;42.040;21.322;2024-03-08T00:54:34;13.82;;;4.82;;
84687;SDS011;74908;42.040;21.322;2024-03-08T00:57:03;11.40;;;5.18;;
84687;SDS011;74908;42.040;21.322;2024-03-08T00:59:31;11.82;;;6.25;;
84687;SDS011;74908;42.040;21.322;2024-03-08T01:01:58;11.63;;;6.47;;
84687;SDS011;74908;42.040;21.322;2024-03-08T01:04:28;18.13;;;7.25;;
84687;SDS011;74908;42.040;21.322;2024-03-08T01:06:55;15.88;;;7.00;;
84687;SDS011;74908;42.040;21.322;2024-03-08T01:09:22;16.73;;;6.57;;
84687;SDS011;74908;42.040;21.322;2024-03-08T01:11:49;14.90;;;6.57;;
84687;SDS011;74908;42.040;21.322;2024-03-08T01:14:15;15.02;;;5.95;;
84687;SDS011;74908;42.040;21.322;2024-03-08T01:16:41;11.20;;;5.95;;
84687;SDS011;74908;42.040;21.322;2024-03-08T01:19:08;14.43;;;6.05;;
84687;SDS011;74908;42.040;21.322;2024-03-08T01:21:34;12.70;;;6.88;;
84687;SDS011;74908;42.040;21.322;2024-03-08T01:24:01;15.80;;;6.95;;
84687;SDS011;74908;42.040;21.322;2024-03-08T01:26:28;15.80;;;7.20;;
84687;SDS011;74908;42.040;21.322;2024-03-08T01:28:54;16.45;;;7.13;;
84687;SDS011;74908;42.040;21.322;2024-03-08T01:31:20;15.02;;;6.55;;
84687;SDS011;74908;42.040;21.322;2024-03-08T01:33:47;16.58;;;7.80;;
84687;SDS011;74908;42.040;21.322;2024-03-08T01:36:15;16.52;;;6.65;;
84687;SDS011;74908;42.040;21.322;2024-03-08T01:38:46;11.25;;;6.20;;
84687;SDS011;74908;42.040;21.322;2024-03-08T01:41:12;10.43;;;4.93;;
84687;SDS011;74908;42.040;21.322;2024-03-08T01:43:41;12.25;;;7.13;;
84687;SDS011;74908;42.040;21.322;2024-03-08T01:46:07;11.95;;;6.32;;
84687;SDS011;74908;42.040;21.322;2024-03-08T01:48:34;10.57;;;5.55;;
84687;SDS011;74908;42.040;21.322;2024-03-08T01:51:05;9.40;;;5.07;;
84687;SDS011;74908;42.040;21.322;2024-03-08T01:55:58;13.20;;;6.25;;
84687;SDS011;74908;42.040;21.322;2024-03-08T01:58:31;12.60;;;6.82;;
84687;SDS011;74908;42.040;21.322;2024-03-08T02:00:58;15.93;;;7.70;;
84687;SDS011;74908;42.040;21.322;2024-03-08T02:03:25;10.07;;;5.65;;
84687;SDS011;74908;42.040;21.322;2024-03-08T02:05:53;13.38;;;5.53;;
84687;SDS011;74908;42.040;21.322;2024-03-08T02:08:20;11.77;;;6.93;;
84687;SDS011;74908;42.040;21.322;2024-03-08T02:10:47;18.75;;;8.05;;
84687;SDS011;74908;42.040;21.322;2024-03-08T02:13:14;17.45;;;7.78;;
84687;SDS011;74908;42.040;21.322;2024-03-08T02:15:51;13.80;;;6.70;;
84687;SDS011;74908;42.040;21.322;2024-03-08T02:18:17;12.35;;;6.60;;
84687;SDS011;74908;42.040;21.322;2024-03-08T02:20:45;16.70;;;6.90;;
84687;SDS011;74908;42.040;21.322;2024-03-08T02:23:13;14.20;;;6.75;;
84687;SDS011;74908;42.040;21.322;2024-03-08T02:25:39;11.15;;;5.97;;
84687;SDS011;74908;42.040;21.322;2024-03-08T02:28:10;13.00;;;7.30;;
84687;SDS011;74908;42.040;21.322;2024-03-08T02:30:37;14.98;;;6.55;;
84687;SDS011;74908;42.040;21.322;2024-03-08T02:33:04;12.85;;;5.93;;
84687;SDS011;74908;42.040;21.322;2024-03-08T02:35:31;11.57;;;6.90;;
84687;SDS011;74908;42.040;21.322;2024-03-08T02:37:58;13.55;;;6.95;;
84687;SDS011;74908;42.040;21.322;2024-03-08T02:40:24;14.65;;;8.35;;
84687;SDS011;74908;42.040;21.322;2024-03-08T02:42:51;14.68;;;7.22;;
84687;SDS011;74908;42.040;21.322;2024-03-08T02:45:17;13.05;;;7.57;;
84687;SDS011;74908;42.040;21.322;2024-03-08T02:47:44;13.80;;;6.22;;
84687;SDS011;74908;42.040;21.322;2024-03-08T02:50:10;14.43;;;6.85;;
84687;SDS011;74908;42.040;21.322;2024-03-08T02:52:37;13.93;;;5.35;;
84687;SDS011;74908;42.040;21.322;2024-03-08T02:55:03;10.20;;;5.13;;
84687;SDS011;74908;42.040;21.322;2024-03-08T02:57:33;11.15;;;5.40;;
84687;SDS011;74908;42.040;21.322;2024-03-08T03:00:00;10.20;;;5.88;;
84687;SDS011;74908;42.040;21.322;2024-03-08T03:02:27;12.65;;;5.25;;
84687;SDS011;74908;42.040;21.322;2024-03-08T03:04:53;8.88;;;5.35;;
84687;SDS011;74908;42.040;21.322;2024-03-08T03:07:21;10.48;;;5.25;;
84687;SDS011;74908;42.040;21.322;2024-03-08T03:09:47;9.20;;;4.60;;
84687;SDS011;74908;42.040;21.322;2024-03-08T03:12:14;13.23;;;5.47;;
84687;SDS011;74908;42.040;21.322;2024-03-08T03:14:40;14.90;;;5.70;;
84687;SDS011;74908;42.040;21.322;2024-03-08T03:17:06;12.60;;;5.97;;
84687;SDS011;74908;42.040;21.322;2024-03-08T03:19:34;13.32;;;5.82;;
84687;SDS011;74908;42.040;21.322;2024-03-08T03:22:01;9.25;;;5.85;;
84687;SDS011;74908;42.040;21.322;2024-03-08T03:24:28;8.68;;;6.05;;
84687;SDS011;74908;42.040;21.322;2024-03-08T03:26:55;14.75;;;6.47;;
84687;SDS011;74908;42.040;21.322;2024-03-08T03:29:21;11.18;;;6.15;;
84687;SDS011;74908;42.040;21.322;2024-03-08T03:31:47;11.68;;;6.43;;
84687;SDS011;74908;42.040;21.322;2024-03-08T03:34:14;11.75;;;5.97;;
84687;SDS011;74908;42.040;21.322;2024-03-08T03:36:40;10.57;;;5.68;;
84687;SDS011;74908;42.040;21.322;2024-03-08T03:39:11;11.45;;;5.15;;
84687;SDS011;74908;42.040;21.322;2024-03-08T03:41:45;9.40;;;4.90;;
84687;SDS011;74908;42.040;21.322;2024-03-08T03:44:11;11.90;;;5.68;;
84687;SDS011;74908;42.040;21.322;2024-03-08T03:46:41;12.23;;;5.30;;
84687;SDS011;74908;42.040;21.322;2024-03-08T03:49:10;11.45;;;6.07;;
84687;SDS011;74908;42.040;21.322;2024-03-08T03:51:37;12.32;;;5.82;;
84687;SDS011;74908;42.040;21.322;2024-03-08T03:54:04;9.90;;;5.10;;
84687;SDS011;74908;42.040;21.322;2024-03-08T03:56:30;12.00;;;6.60;;
84687;SDS011;74908;42.040;21.322;2024-03-08T03:58:57;10.73;;;5.20;;
84687;SDS011;74908;42.040;21.322;2024-03-08T04:01:23;13.27;;;6.47;;
84687;SDS011;74908;42.040;21.322;2024-03-08T04:03:49;13.07;;;6.15;;
84687;SDS011;74908;42.040;21.322;2024-03-08T04:06:15;12.82;;;6.18;;
84687;SDS011;74908;42.040;21.322;2024-03-08T04:08:43;11.00;;;5.70;;
84687;SDS011;74908;42.040;21.322;2024-03-08T04:11:09;8.27;;;3.85;;
84687;SDS011;74908;42.040;21.322;2024-03-08T04:13:36;9.82;;;4.82;;
84687;SDS011;74908;42.040;21.322;2024-03-08T04:16:03;8.50;;;4.18;;
84687;SDS011;74908;42.040;21.322;2024-03-08T04:18:33;9.20;;;5.38;;
84687;SDS011;74908;42.040;21.322;2024-03-08T04:21:01;8.07;;;4.68;;
84687;SDS011;74908;42.040;21.322;2024-03-08T04:23:28;8.68;;;5.00;;
84687;SDS011;74908;42.040;21.322;2024-03-08T04:25:54;9.68;;;4.85;;
84687;SDS011;74908;42.040;21.322;2024-03-08T04:28:20;13.13;;;5.00;;
84687;SDS011;74908;42.040;21.322;2024-03-08T04:30:47;7.20;;;4.35;;
84687;SDS011;74908;42.040;21.322;2024-03-08T04:33:14;10.75;;;5.15;;
84687;SDS011;74908;42.040;21.322;2024-03-08T04:35:42;8.88;;;4.47;;
84687;SDS011;74908;42.040;21.322;2024-03-08T04:38:11;12.20;;;4.88;;
84687;SDS011;74908;42.040;21.322;2024-03-08T04:40:37;11.48;;;4.65;;
84687;SDS011;74908;42.040;21.322;2024-03-08T04:43:03;11.38;;;5.15;;
84687;SDS011;74908;42.040;21.322;2024-03-08T04:45:29;8.93;;;4.82;;
84687;SDS011;74908;42.040;21.322;2024-03-08T04:47:55;11.02;;;5.28;;
84687;SDS011;74908;42.040;21.322;2024-03-08T04:50:22;11.68;;;6.50;;
84687;SDS011;74908;42.040;21.322;2024-03-08T04:52:48;11.38;;;4.88;;
84687;SDS011;74908;42.040;21.322;2024-03-08T04:55:14;13.07;;;5.50;;
84687;SDS011;74908;42.040;21.322;2024-03-08T04:57:41;15.25;;;5.30;;
84687;SDS011;74908;42.040;21.322;2024-03-08T05:00:09;13.98;;;5.80;;
84687;SDS011;74908;42.040;21.322;2024-03-08T05:02:39;18.25;;;6.53;;
84687;SDS011;74908;42.040;21.322;2024-03-08T05:05:06;9.65;;;4.68;;
84687;SDS011;74908;42.040;21.322;2024-03-08T05:07:34;14.38;;;5.88;;
84687;SDS011;74908;42.040;21.322;2024-03-08T05:10:00;11.50;;;6.32;;
84687;SDS011;74908;42.040;21.322;2024-03-08T05:12:27;13.52;;;6.68;;
84687;SDS011;74908;42.040;21.322;2024-03-08T05:14:53;15.63;;;7.72;;
84687;SDS011;74908;42.040;21.322;2024-03-08T05:17:20;15.20;;;7.03;;
84687;SDS011;74908;42.040;21.322;2024-03-08T05:19:49;14.57;;;5.97;;
84687;SDS011;74908;42.040;21.322;2024-03-08T05:22:16;11.93;;;6.60;;
84687;SDS011;74908;42.040;21.322;2024-03-08T05:24:44;14.23;;;5.05;;
84687;SDS011;74908;42.040;21.322;2024-03-08T05:27:11;12.23;;;5.70;;
84687;SDS011;74908;42.040;21.322;2024-03-08T05:29:38;11.18;;;5.90;;
84687;SDS011;74908;42.040;21.322;2024-03-08T05:32:04;15.30;;;6.28;;
84687;SDS011;74908;42.040;21.322;2024-03-08T05:34:32;17.58;;;6.28;;
84687;SDS011;74908;42.040;21.322;2024-03-08T05:36:58;12.38;;;5.80;;
84687;SDS011;74908;42.040;21.322;2024-03-08T05:39:25;14.57;;;6.25;;
84687;SDS011;74908;42.040;21.322;2024-03-08T05:41:51;12.25;;;6.28;;
84687;SDS011;74908;42.040;21.322;2024-03-08T05:44:20;13.07;;;6.35;;
84687;SDS011;74908;42.040;21.322;2024-03-08T05:46:47;17.25;;;7.53;;
84687;SDS011;74908;42.040;21.322;2024-03-08T05:49:13;15.35;;;7.30;;
84687;SDS011;74908;42.040;21.322;2024-03-08T05:51:40;14.55;;;7.07;;
84687;SDS011;74908;42.040;21.322;2024-03-08T05:54:07;13.02;;;6.63;;
84687;SDS011;74908;42.040;21.322;2024-03-08T05:56:37;17.00;;;6.32;;
84687;SDS011;74908;42.040;21.322;2024-03-08T05:59:03;11.65;;;6.18;;
84687;SDS011;74908;42.040;21.322;2024-03-08T06:01:30;12.50;;;5.90;;
84687;SDS011;74908;42.040;21.322;2024-03-08T06:03:56;11.88;;;5.78;;
84687;SDS011;74908;42.040;21.322;2024-03-08T06:06:23;9.60;;;5.10;;
84687;SDS011;74908;42.040;21.322;2024-03-08T06:08:50;9.27;;;4.82;;
84687;SDS011;74908;42.040;21.322;2024-03-08T06:11:17;13.73;;;4.18;;
84687;SDS011;74908;42.040;21.322;2024-03-08T06:13:44;12.05;;;5.32;;
84687;SDS011;74908;42.040;21.322;2024-03-08T06:16:10;10.35;;;5.40;;
84687;SDS011;74908;42.040;21.322;2024-03-08T06:18:36;11.57;;;5.78;;
84687;SDS011;74908;42.040;21.322;2024-03-08T06:21:06;7.55;;;4.10;;
84687;SDS011;74908;42.040;21.322;2024-03-08T06:23:35;7.72;;;4.57;;
84687;SDS011;74908;42.040;21.322;2024-03-08T06:26:04;12.38;;;5.63;;
84687;SDS011;74908;42.040;21.322;2024-03-08T06:28:30;14.30;;;5.13;;
84687;SDS011;74908;42.040;21.322;2024-03-08T06:31:00;12.48;;;6.28;;
84687;SDS011;74908;42.040;21.322;2024-03-08T06:33:27;10.43;;;6.30;;
84687;SDS011;74908;42.040;21.322;2024-03-08T06:35:54;15.25;;;6.93;;
84687;SDS011;74908;42.040;21.322;2024-03-08T06:38:22;13.77;;;6.85;;
84687;SDS011;74908;42.040;21.322;2024-03-08T06:40:49;15.90;;;6.60;;
84687;SDS011;74908;42.040;21.322;2024-03-08T06:43:16;12.18;;;6.80;;
84687;SDS011;74908;42.040;21.322;2024-03-08T06:45:44;12.43;;;6.32;;
84687;SDS011;74908;42.040;21.322;2024-03-08T06:48:14;14.90;;;6.18;;
84687;SDS011;74908;42.040;21.322;2024-03-08T06:50:43;12.77;;;6.90;;
84687;SDS011;74908;42.040;21.322;2024-03-08T06:53:10;18.42;;;7.10;;
84687;SDS011;74908;42.040;21.322;2024-03-08T06:55:37;12.00;;;6.43;;
84687;SDS011;74908;42.040;21.322;2024-03-08T06:58:03;15.95;;;6.53;;
84687;SDS011;74908;42.040;21.322;2024-03-08T07:00:30;19.05;;;7.95;;
84687;SDS011;74908;42.040;21.322;2024-03-08T07:02:56;13.75;;;7.85;;
84687;SDS011;74908;42.040;21.322;2024-03-08T07:05:29;13.25;;;7.07;;
84687;SDS011;74908;42.040;21.322;2024-03-08T07:07:56;12.45;;;7.55;;
84687;SDS011;74908;42.040;21.322;2024-03-08T07:10:22;19.15;;;8.13;;
84687;SDS011;74908;42.040;21.322;2024-03-08T07:12:51;15.05;;;6.47;;
84687;SDS011;74908;42.040;21.322;2024-03-08T07:15:20;10.15;;;5.90;;
84687;SDS011;74908;42.040;21.322;2024-03-08T07:17:48;16.67;;;6.85;;
84687;SDS011;74908;42.040;21.322;2024-03-08T07:20:17;15.05;;;7.25;;
84687;SDS011;74908;42.040;21.322;2024-03-08T07:22:47;13.13;;;6.80;;
84687;SDS011;74908;42.040;21.322;2024-03-08T07:25:16;14.55;;;7.15;;
84687;SDS011;74908;42.040;21.322;2024-03-08T07:27:52;10.65;;;6.63;;
84687;SDS011;74908;42.040;21.322;2024-03-08T07:30:22;12.52;;;7.40;;
84687;SDS011;74908;42.040;21.322;2024-03-08T07:33:07;12.80;;;6.70;;
84687;SDS011;74908;42.040;21.322;2024-03-08T07:35:40;11.23;;;5.60;;
84687;SDS011;74908;42.040;21.322;2024-03-08T07:38:07;15.10;;;6.78;;
84687;SDS011;74908;42.040;21.322;2024-03-08T07:40:38;15.23;;;7.07;;
84687;SDS011;74908;42.040;21.322;2024-03-08T07:43:14;15.00;;;6.35;;
84687;SDS011;74908;42.040;21.322;2024-03-08T07:45:40;16.25;;;7.65;;
84687;SDS011;74908;42.040;21.322;2024-03-08T07:48:07;14.95;;;6.32;;
84687;SDS011;74908;42.040;21.322;2024-03-08T07:50:36;12.90;;;6.53;;
84687;SDS011;74908;42.040;21.322;2024-03-08T07:53:04;13.25;;;6.40;;
84687;SDS011;74908;42.040;21.322;2024-03-08T07:55:35;15.77;;;6.47;;
84687;SDS011;74908;42.040;21.322;2024-03-08T07:58:04;12.70;;;6.65;;
84687;SDS011;74908;42.040;21.322;2024-03-08T08:00:31;10.80;;;4.40;;
84687;SDS011;74908;42.040;21.322;2024-03-08T08:02:57;12.13;;;5.35;;
84687;SDS011;74908;42.040;21.322;2024-03-08T08:05:24;8.52;;;5.40;;
84687;SDS011;74908;42.040;21.322;2024-03-08T08:07:51;7.07;;;4.35;;
84687;SDS011;74908;42.040;21.322;2024-03-08T08:10:18;7.88;;;4.72;;
84687;SDS011;74908;42.040;21.322;2024-03-08T08:12:48;11.43;;;5.47;;
84687;SDS011;74908;42.040;21.322;2024-03-08T08:15:14;11.95;;;6.95;;
84687;SDS011;74908;42.040;21.322;2024-03-08T08:17:43;13.38;;;6.57;;
84687;SDS011;74908;42.040;21.322;2024-03-08T08:20:10;12.52;;;6.97;;
84687;SDS011;74908;42.040;21.322;2024-03-08T08:22:40;12.77;;;6.75;;
84687;SDS011;74908;42.040;21.322;2024-03-08T08:25:08;10.82;;;4.90;;
84687;SDS011;74908;42.040;21.322;2024-03-08T08:27:38;12.02;;;5.20;;
84687;SDS011;74908;42.040;21.322;2024-03-08T08:30:10;8.00;;;4.47;;
84687;SDS011;74908;42.040;21.322;2024-03-08T08:32:37;11.48;;;5.15;;
84687;SDS011;74908;42.040;21.322;2024-03-08T08:35:04;10.05;;;4.82;;
84687;SDS011;74908;42.040;21.322;2024-03-08T08:37:31;8.85;;;4.78;;
84687;SDS011;74908;42.040;21.322;2024-03-08T08:39:57;7.47;;;4.45;;
84687;SDS011;74908;42.040;21.322;2024-03-08T08:42:30;7.35;;;4.38;;
84687;SDS011;74908;42.040;21.322;2024-03-08T08:44:57;6.03;;;4.70;;
84687;SDS011;74908;42.040;21.322;2024-03-08T08:47:23;8.20;;;5.07;;
84687;SDS011;74908;42.040;21.322;2024-03-08T08:49:50;8.68;;;5.35;;
84687;SDS011;74908;42.040;21.322;2024-03-08T08:52:16;10.75;;;5.80;;
84687;SDS011;74908;42.040;21.322;2024-03-08T08:54:42;9.27;;;5.20;;
84687;SDS011;74908;42.040;21.322;2024-03-08T08:57:10;8.27;;;4.40;;
84687;SDS011;74908;42.040;21.322;2024-03-08T08:59:36;8.10;;;4.82;;
84687;SDS011;74908;42.040;21.322;2024-03-08T09:02:07;8.50;;;5.10;;
84687;SDS011;74908;42.040;21.322;2024-03-08T09:04:36;8.77;;;4.10;;
84687;SDS011;74908;42.040;21.322;2024-03-08T09:07:02;8.50;;;4.22;;
84687;SDS011;74908;42.040;21.322;2024-03-08T09:09:31;10.57;;;5.65;;
84687;SDS011;74908;42.040;21.322;2024-03-08T09:11:58;11.23;;;5.38;;
84687;SDS011;74908;42.040;21.322;2024-03-08T09:14:24;10.55;;;6.00;;
84687;SDS011;74908;42.040;21.322;2024-03-08T09:16:51;13.98;;;6.05;;
84687;SDS011;74908;42.040;21.322;2024-03-08T09:19:17;12.35;;;5.22;;
84687;SDS011;74908;42.040;21.322;2024-03-08T09:21:44;11.90;;;4.90;;
84687;SDS011;74908;42.040;21.322;2024-03-08T09:24:12;12.30;;;5.28;;
84687;SDS011;74908;42.040;21.322;2024-03-08T09:26:38;10.23;;;5.28;;
84687;SDS011;74908;42.040;21.322;2024-03-08T09:29:07;10.15;;;4.88;;
84687;SDS011;74908;42.040;21.322;2024-03-08T09:31:33;10.88;;;5.13;;
84687;SDS011;74908;42.040;21.322;2024-03-08T09:33:59;9.82;;;5.10;;
84687;SDS011;74908;42.040;21.322;2024-03-08T09:36:25;9.75;;;4.25;;
84687;SDS011;74908;42.040;21.322;2024-03-08T09:38:52;8.18;;;4.70;;
84687;SDS011;74908;42.040;21.322;2024-03-08T09:41:18;7.20;;;4.20;;
84687;SDS011;74908;42.040;21.322;2024-03-08T09:43:45;8.60;;;4.68;;
84687;SDS011;74908;42.040;21.322;2024-03-08T09:46:12;8.88;;;4.68;;
84687;SDS011;74908;42.040;21.322;2024-03-08T09:48:39;10.70;;;4.53;;
84687;SDS011;74908;42.040;21.322;2024-03-08T09:51:06;8.48;;;4.75;;
84687;SDS011;74908;42.040;21.322;2024-03-08T09:53:33;8.05;;;4.72;;
84687;SDS011;74908;42.040;21.322;2024-03-08T09:56:02;12.15;;;4.40;;
84687;SDS011;74908;42.040;21.322;2024-03-08T09:58:28;7.82;;;4.75;;
84687;SDS011;74908;42.040;21.322;2024-03-08T10:00:58;6.90;;;4.30;;
84687;SDS011;74908;42.040;21.322;2024-03-08T10:03:26;8.35;;;4.38;;
84687;SDS011;74908;42.040;21.322;2024-03-08T10:05:53;9.75;;;3.85;;
84687;SDS011;74908;42.040;21.322;2024-03-08T10:08:21;8.43;;;4.63;;
84687;SDS011;74908;42.040;21.322;2024-03-08T10:10:47;7.97;;;4.38;;
84687;SDS011;74908;42.040;21.322;2024-03-08T10:13:14;6.07;;;3.58;;
84687;SDS011;74908;42.040;21.322;2024-03-08T10:15:42;7.78;;;4.32;;
84687;SDS011;74908;42.040;21.322;2024-03-08T10:18:08;11.32;;;4.25;;
84687;SDS011;74908;42.040;21.322;2024-03-08T10:20:35;9.38;;;3.95;;
84687;SDS011;74908;42.040;21.322;2024-03-08T10:23:02;6.28;;;4.45;;
84687;SDS011;74908;42.040;21.322;2024-03-08T10:25:30;8.25;;;4.15;;
84687;SDS011;74908;42.040;21.322;2024-03-08T10:27:56;6.85;;;3.20;;
84687;SDS011;74908;42.040;21.322;2024-03-08T10:30:22;11.07;;;5.47;;
84687;SDS011;74908;42.040;21.322;2024-03-08T10:32:49;7.95;;;4.05;;
84687;SDS011;74908;42.040;21.322;2024-03-08T10:35:17;8.75;;;4.88;;
84687;SDS011;74908;42.040;21.322;2024-03-08T10:37:47;13.65;;;5.43;;
84687;SDS011;74908;42.040;21.322;2024-03-08T10:40:18;7.18;;;4.45;;
84687;SDS011;74908;42.040;21.322;2024-03-08T10:42:54;6.10;;;4.20;;
84687;SDS011;74908;42.040;21.322;2024-03-08T10:45:31;6.90;;;4.30;;
84687;SDS011;74908;42.040;21.322;2024-03-08T10:48:03;8.40;;;4.53;;
84687;SDS011;74908;42.040;21.322;2024-03-08T10:50:30;6.13;;;3.88;;
84687;SDS011;74908;42.040;21.322;2024-03-08T10:52:59;9.60;;;4.45;;
84687;SDS011;74908;42.040;21.322;2024-03-08T10:55:26;12.65;;;4.70;;
84687;SDS011;74908;42.040;21.322;2024-03-08T10:57:54;11.15;;;4.57;;
84687;SDS011;74908;42.040;21.322;2024-03-08T11:00:20;7.60;;;4.40;;
84687;SDS011;74908;42.040;21.322;2024-03-08T11:02:53;6.40;;;4.25;;
84687;SDS011;74908;42.040;21.322;2024-03-08T11:05:38;6.65;;;3.25;;
84687;SDS011;74908;42.040;21.322;2024-03-08T11:08:20;9.07;;;3.90;;
84687;SDS011;74908;42.040;21.322;2024-03-08T11:10:52;7.10;;;4.32;;
84687;SDS011;74908;42.040;21.322;2024-03-08T11:13:41;9.15;;;4.25;;
84687;SDS011;74908;42.040;21.322;2024-03-08T11:16:11;7.57;;;4.70;;
84687;SDS011;74908;42.040;21.322;2024-03-08T11:18:38;5.68;;;3.20;;
84687;SDS011;74908;42.040;21.322;2024-03-08T11:21:06;7.57;;;3.55;;
84687;SDS011;74908;42.040;21.322;2024-03-08T11:23:37;7.95;;;4.28;;
84687;SDS011;74908;42.040;21.322;2024-03-08T11:26:17;5.05;;;3.67;;
84687;SDS011;74908;42.040;21.322;2024-03-08T11:28:45;7.82;;;4.03;;
84687;SDS011;74908;42.040;21.322;2024-03-08T11:33:39;7.63;;;4.72;;
84687;SDS011;74908;42.040;21.322;2024-03-08T11:36:21;7.18;;;3.83;;
84687;SDS011;74908;42.040;21.322;2024-03-08T11:38:49;9.27;;;4.72;;
84687;SDS011;74908;42.040;21.322;2024-03-08T11:41:23;9.20;;;5.57;;
84687;SDS011;74908;42.040;21.322;2024-03-08T11:44:04;7.72;;;4.72;;
84687;SDS011;74908;42.040;21.322;2024-03-08T11:46:31;7.82;;;4.53;;
84687;SDS011;74908;42.040;21.322;2024-03-08T11:48:57;6.72;;;4.43;;
84687;SDS011;74908;42.040;21.322;2024-03-08T11:51:23;8.35;;;5.68;;
84687;SDS011;74908;42.040;21.322;2024-03-08T11:53:49;9.45;;;5.00;;
84687;SDS011;74908;42.040;21.322;2024-03-08T11:56:16;7.88;;;4.63;;
84687;SDS011;74908;42.040;21.322;2024-03-08T11:58:55;8.57;;;4.82;;
84687;SDS011;74908;42.040;21.322;2024-03-08T12:01:22;7.55;;;4.18;;
84687;SDS011;74908;42.040;21.322;2024-03-08T12:03:52;7.85;;;4.72;;
84687;SDS011;74908;42.040;21.322;2024-03-08T12:06:20;8.35;;;4.35;;
84687;SDS011;74908;42.040;21.322;2024-03-08T12:08:46;9.15;;;4.68;;
84687;SDS011;74908;42.040;21.322;2024-03-08T12:11:19;7.65;;;4.13;;
84687;SDS011;74908;42.040;21.322;2024-03-08T12:13:48;6.68;;;4.22;;
84687;SDS011;74908;42.040;21.322;2024-03-08T12:16:19;8.50;;;4.97;;
84687;SDS011;74908;42.040;21.322;2024-03-08T12:18:48;6.40;;;4.32;;
84687;SDS011;74908;42.040;21.322;2024-03-08T12:21:15;7.40;;;4.97;;
84687;SDS011;74908;42.040;21.322;2024-03-08T12:26:28;7.38;;;5.07;;
84687;SDS011;74908;42.040;21.322;2024-03-08T12:29:13;9.43;;;4.50;;
84687;SDS011;74908;42.040;21.322;2024-03-08T12:31:42;6.88;;;4.40;;
84687;SDS011;74908;42.040;21.322;2024-03-08T12:34:20;8.85;;;4.88;;
84687;SDS011;74908;42.040;21.322;2024-03-08T12:36:47;9.60;;;4.68;;
84687;SDS011;74908;42.040;21.322;2024-03-08T12:39:16;6.53;;;4.05;;
84687;SDS011;74908;42.040;21.322;2024-03-08T12:41:47;7.22;;;4.20;;
84687;SDS011;74908;42.040;21.322;2024-03-08T12:44:13;9.85;;;5.35;;
84687;SDS011;74908;42.040;21.322;2024-03-08T12:46:39;8.63;;;4.90;;
84687;SDS011;74908;42.040;21.322;2024-03-08T12:49:08;7.15;;;4.47;;
84687;SDS011;74908;42.040;21.322;2024-03-08T12:51:35;9.18;;;4.25;;
84687;SDS011;74908;42.040;21.322;2024-03-08T12:54:04;5.57;;;3.50;;
84687;SDS011;74908;42.040;21.322;2024-03-08T12:56:33;7.65;;;4.70;;
84687;SDS011;74908;42.040;21.322;2024-03-08T12:58:59;6.32;;;3.53;;
84687;SDS011;74908;42.040;21.322;2024-03-08T13:01:26;5.65;;;3.30;;
84687;SDS011;74908;42.040;21.322;2024-03-08T13:03:53;10.02;;;4.88;;
84687;SDS011;74908;42.040;21.322;2024-03-08T13:06:20;5.10;;;3.42;;
84687;SDS011;74908;42.040;21.322;2024-03-08T13:08:50;7.15;;;3.53;;
84687;SDS011;74908;42.040;21.322;2024-03-08T13:11:17;6.80;;;3.65;;
84687;SDS011;74908;42.040;21.322;2024-03-08T13:13:44;6.00;;;3.55;;
84687;SDS011;74908;42.040;21.322;2024-03-08T13:16:10;8.10;;;4.10;;
84687;SDS011;74908;42.040;21.322;2024-03-08T13:18:40;5.65;;;3.05;;
84687;SDS011;74908;42.040;21.322;2024-03-08T13:21:09;4.07;;;2.53;;
84687;SDS011;74908;42.040;21.322;2024-03-08T13:23:37;6.28;;;3.45;;
84687;SDS011;74908;42.040;21.322;2024-03-08T13:26:10;4.63;;;3.15;;
84687;SDS011;74908;42.040;21.322;2024-03-08T13:28:46;5.97;;;3.85;;
84687;SDS011;74908;42.040;21.322;2024-03-08T13:31:19;8.57;;;3.60;;
84687;SDS011;74908;42.040;21.322;2024-03-08T13:33:45;6.40;;;3.10;;
84687;SDS011;74908;42.040;21.322;2024-03-08T13:36:12;4.80;;;3.50;;
84687;SDS011;74908;42.040;21.322;2024-03-08T13:38:44;6.85;;;3.65;;
84687;SDS011;74908;42.040;21.322;2024-03-08T13:41:11;8.35;;;3.35;;
84687;SDS011;74908;42.040;21.322;2024-03-08T13:43:43;7.45;;;4.32;;
84687;SDS011;74908;42.040;21.322;2024-03-08T13:46:09;6.00;;;3.63;;
84687;SDS011;74908;42.040;21.322;2024-03-08T13:48:35;5.15;;;3.42;;
84687;SDS011;74908;42.040;21.322;2024-03-08T13:51:06;6.72;;;3.28;;
84687;SDS011;74908;42.040;21.322;2024-03-08T13:53:35;5.05;;;3.30;;
84687;SDS011;74908;42.040;21.322;2024-03-08T13:56:02;4.68;;;2.78;;
84687;SDS011;74908;42.040;21.322;2024-03-08T13:58:28;7.25;;;3.38;;
84687;SDS011;74908;42.040;21.322;2024-03-08T14:00:54;7.25;;;3.47;;
84687;SDS011;74908;42.040;21.322;2024-03-08T14:03:21;4.28;;;2.95;;
84687;SDS011;74908;42.040;21.322;2024-03-08T14:05:48;7.22;;;2.95;;
84687;SDS011;74908;42.040;21.322;2024-03-08T14:08:15;5.68;;;2.83;;
84687;SDS011;74908;42.040;21.322;2024-03-08T14:10:42;4.10;;;2.67;;
84687;SDS011;74908;42.040;21.322;2024-03-08T14:13:11;4.78;;;3.20;;
84687;SDS011;74908;42.040;21.322;2024-03-08T14:15:40;5.03;;;2.58;;
84687;SDS011;74908;42.040;21.322;2024-03-08T14:18:07;5.93;;;3.50;;
84687;SDS011;74908;42.040;21.322;2024-03-08T14:20:33;5.93;;;2.60;;
84687;SDS011;74908;42.040;21.322;2024-03-08T14:22:59;5.00;;;2.88;;
84687;SDS011;74908;42.040;21.322;2024-03-08T14:25:26;5.55;;;2.97;;
84687;SDS011;74908;42.040;21.322;2024-03-08T14:27:55;6.32;;;2.65;;
84687;SDS011;74908;42.040;21.322;2024-03-08T14:30:28;3.55;;;2.53;;
84687;SDS011;74908;42.040;21.322;2024-03-08T14:33:07;3.50;;;2.22;;
84687;SDS011;74908;42.040;21.322;2024-03-08T14:35:34;4.75;;;2.60;;
84687;SDS011;74908;42.040;21.322;2024-03-08T14:38:01;5.47;;;2.88;;
84687;SDS011;74908;42.040;21.322;2024-03-08T14:40:28;4.80;;;3.22;;